Terminal Aerodrome Forecast
Issued by NWS Detroit/Pontiac, MI

Home | Current Version | Previous Version | Text Only | Print | Product List | Glossary On
Versions: 1 2 3 4 5 6 7 8 9 10 11 12 13 14 15 16 17 18 19 20 21 22 23 24 25 26 27 28 29
000
FTUS43 KDTX 222320
TAFDTW
TAF
KDTW 222320Z 2300/2406 21010KT 6SM HZ SCT025 OVC035
     FM230200 19008KT 4SM BR SCT015 OVC025
     FM230800 21010KT 1 1/2SM BR BKN008 OVC015 PROB30 2310/2313
      1/2SM -SHRA FG OVC008
     FM231400 24007KT 5SM BR OVC025
     FM231700 31007KT P6SM SCT040 BKN150
     FM232200 01006KT 6SM HZ SCT035 BKN100
     FM240100 02008KT 4SM BR SCT018 BKN035=

USA.gov is the U.S. government's official web portal to all federal, state and local government web resources and services.